createdAt,value
2018-07-10T00:02:11.886Z,2.83
2018-07-10T00:04:51.423Z,2.60
2018-07-10T00:07:30.833Z,2.77
2018-07-10T00:10:09.195Z,3.27
2018-07-10T00:12:37.437Z,3.10
2018-07-10T00:15:05.666Z,2.40
2018-07-10T00:17:33.604Z,2.58
2018-07-10T00:20:01.810Z,3.27
2018-07-10T00:22:30.003Z,3.17
2018-07-10T00:24:58.197Z,3.15
2018-07-10T00:27:26.391Z,2.65
2018-07-10T00:29:54.622Z,2.60
2018-07-10T00:32:22.816Z,3.02
2018-07-10T00:34:51.043Z,2.70
2018-07-10T00:37:19.267Z,2.90
2018-07-10T00:39:47.521Z,3.00
2018-07-10T00:42:15.704Z,2.72
2018-07-10T00:44:43.916Z,3.05
2018-07-10T00:47:12.129Z,2.83
2018-07-10T00:49:40.336Z,2.60
2018-07-10T00:52:08.551Z,2.55
2018-07-10T00:54:36.822Z,2.80
2018-07-10T00:57:05.228Z,2.52
2018-07-10T00:59:33.422Z,2.47
2018-07-10T01:02:01.350Z,3.02
2018-07-10T01:04:29.561Z,2.77
2018-07-10T01:06:57.482Z,2.60
2018-07-10T01:09:25.734Z,2.70
2018-07-10T01:11:53.915Z,2.90
2018-07-10T01:14:22.124Z,2.67
2018-07-10T01:16:50.319Z,2.80
2018-07-10T01:19:19.505Z,2.42
2018-07-10T01:21:48.174Z,2.47
2018-07-10T01:24:17.669Z,2.47
2018-07-10T01:26:46.428Z,2.75
2018-07-10T01:29:20.873Z,2.60
2018-07-10T01:31:51.430Z,2.67
2018-07-10T01:34:19.621Z,2.42
2018-07-10T01:36:47.836Z,2.58
2018-07-10T01:39:16.034Z,2.70
2018-07-10T01:41:44.229Z,2.12
2018-07-10T01:44:12.427Z,2.50
2018-07-10T01:46:40.621Z,2.65
2018-07-10T01:49:08.815Z,2.42
2018-07-10T01:51:37.005Z,2.27
2018-07-10T01:54:05.186Z,2.40
2018-07-10T01:56:33.465Z,2.60
2018-07-10T01:59:07.506Z,2.42
2018-07-10T02:01:35.708Z,3.02
2018-07-10T02:04:03.929Z,2.47
2018-07-10T02:06:32.152Z,3.00
2018-07-10T02:09:00.111Z,2.60
2018-07-10T02:11:28.337Z,2.35
2018-07-10T02:13:56.579Z,2.60
2018-07-10T02:16:24.774Z,2.80
2018-07-10T02:18:52.982Z,3.00
2018-07-10T02:21:21.204Z,2.45
2018-07-10T02:23:49.434Z,2.83
2018-07-10T02:26:27.088Z,2.90
2018-07-10T02:28:56.029Z,2.90
2018-07-10T02:31:24.277Z,3.10
2018-07-10T02:33:53.141Z,2.95
2018-07-10T02:36:22.280Z,2.52
2018-07-10T02:38:52.315Z,2.90
2018-07-10T02:41:22.222Z,3.00
2018-07-10T02:43:58.784Z,2.75
2018-07-10T02:46:27.820Z,2.85
2018-07-10T02:48:57.955Z,2.90
2018-07-10T02:51:26.273Z,3.22
2018-07-10T02:53:55.142Z,3.15
2018-07-10T02:56:23.382Z,3.10
2018-07-10T02:58:51.686Z,2.72
2018-07-10T03:01:20.240Z,2.87
2018-07-10T03:03:48.877Z,2.60
2018-07-10T03:06:17.180Z,3.05
2018-07-10T03:08:45.779Z,2.72
2018-07-10T03:11:13.971Z,2.98
2018-07-10T03:13:42.331Z,2.70
2018-07-10T03:16:10.605Z,3.10
2018-07-10T03:18:39.529Z,3.02
2018-07-10T03:21:07.493Z,2.70
2018-07-10T03:23:35.712Z,3.02
2018-07-10T03:26:03.939Z,3.33
2018-07-10T03:28:32.144Z,3.02
2018-07-10T03:31:00.379Z,3.22
2018-07-10T03:33:28.600Z,3.47
2018-07-10T03:35:56.565Z,3.45
2018-07-10T03:38:25.787Z,3.70
2018-07-10T03:40:54.016Z,3.40
2018-07-10T03:43:22.212Z,3.15
2018-07-10T03:45:50.419Z,3.20
2018-07-10T03:48:18.723Z,3.90
2018-07-10T03:50:46.954Z,3.87
2018-07-10T03:53:15.158Z,3.62
2018-07-10T03:55:43.105Z,3.85
2018-07-10T03:58:11.312Z,3.50
2018-07-10T04:00:39.243Z,3.25
2018-07-10T04:03:07.448Z,3.45
2018-07-10T04:05:35.639Z,3.87
2018-07-10T04:08:03.598Z,3.50
2018-07-10T04:10:33.726Z,3.55
2018-07-10T04:13:06.012Z,3.50
2018-07-10T04:15:33.968Z,3.52
2018-07-10T04:18:05.950Z,3.50
2018-07-10T04:20:39.195Z,3.60
2018-07-10T04:23:07.424Z,3.40
2018-07-10T04:25:35.614Z,3.60
2018-07-10T04:28:11.003Z,3.50
2018-07-10T04:30:48.986Z,3.80
2018-07-10T04:33:17.177Z,3.83
2018-07-10T04:35:45.399Z,3.50
2018-07-10T04:38:13.616Z,4.12
2018-07-10T04:40:42.137Z,4.10
2018-07-10T04:43:17.849Z,3.98
2018-07-10T04:45:47.128Z,4.10
2018-07-10T04:48:20.700Z,3.75
2018-07-10T04:50:52.759Z,4.15
2018-07-10T04:53:56.002Z,4.12
2018-07-10T04:56:25.977Z,3.70
2018-07-10T04:58:55.688Z,3.60
2018-07-10T05:01:39.776Z,3.47
2018-07-10T05:04:08.004Z,3.70
2018-07-10T05:06:37.004Z,4.08
2018-07-10T05:09:05.819Z,3.72
2018-07-10T05:11:35.163Z,3.60
2018-07-10T05:14:03.472Z,3.95
2018-07-10T05:16:31.688Z,4.28
2018-07-10T05:18:59.897Z,3.75
2018-07-10T05:21:28.357Z,3.55
2018-07-10T05:23:56.581Z,3.65
2018-07-10T05:26:25.203Z,4.22
2018-07-10T05:28:53.528Z,4.35
2018-07-10T05:31:22.193Z,4.25
2018-07-10T05:33:51.606Z,4.05
2018-07-10T05:36:20.156Z,4.50
2018-07-10T05:38:53.519Z,4.45
2018-07-10T05:41:22.404Z,4.22
2018-07-10T05:43:52.305Z,4.65
2018-07-10T05:46:22.608Z,4.53
2018-07-10T05:48:54.432Z,4.58
2018-07-10T05:51:23.338Z,4.67
2018-07-10T05:53:51.549Z,4.58
2018-07-10T05:56:19.785Z,4.25
2018-07-10T05:58:48.025Z,4.95
2018-07-10T06:01:16.216Z,4.30
2018-07-10T06:03:44.457Z,5.10
2018-07-10T06:06:12.664Z,4.65
2018-07-10T06:08:40.643Z,4.75
2018-07-10T06:11:08.862Z,4.62
2018-07-10T06:13:37.068Z,4.62
2018-07-10T06:16:05.333Z,4.80
2018-07-10T06:18:33.501Z,4.78
2018-07-10T06:21:01.732Z,4.90
2018-07-10T06:23:34.258Z,4.80
2018-07-10T06:26:02.482Z,4.55
2018-07-10T06:28:30.411Z,4.17
2018-07-10T06:31:04.475Z,4.60
2018-07-10T06:33:32.450Z,3.85
2018-07-10T06:36:09.171Z,4.45
2018-07-10T06:38:40.735Z,3.98
2018-07-10T06:41:08.984Z,4.20
2018-07-10T06:43:47.464Z,4.35
2018-07-10T06:46:15.815Z,4.45
2018-07-10T06:48:45.180Z,4.15
2018-07-10T06:51:15.386Z,3.98
2018-07-10T06:53:44.453Z,4.30
2018-07-10T06:56:12.831Z,4.35
2018-07-10T06:58:41.010Z,4.40
2018-07-10T07:01:09.201Z,4.70
2018-07-10T07:03:37.400Z,4.62
2018-07-10T07:06:05.590Z,4.50
2018-07-10T07:08:33.787Z,3.90
2018-07-10T07:11:02.083Z,4.47
2018-07-10T07:13:30.284Z,4.92
2018-07-10T07:15:58.488Z,4.80
2018-07-10T07:18:26.704Z,4.70
2018-07-10T07:20:54.895Z,3.98
2018-07-10T07:23:23.103Z,4.05
2018-07-10T07:25:51.365Z,4.80
2018-07-10T07:28:19.565Z,6.03
2018-07-10T07:30:47.754Z,5.08
2018-07-10T07:33:15.960Z,4.85
2018-07-10T07:35:43.920Z,4.78
2018-07-10T07:38:12.139Z,4.47
2018-07-10T07:40:40.342Z,4.37
2018-07-10T07:43:08.831Z,4.72
2018-07-10T07:45:37.024Z,4.92
2018-07-10T07:48:05.212Z,4.70
2018-07-10T07:50:33.415Z,4.83
2018-07-10T07:53:01.601Z,4.75
2018-07-10T07:55:30.056Z,5.20
2018-07-10T07:57:58.245Z,5.30
2018-07-10T08:00:26.444Z,5.17
2018-07-10T08:02:54.651Z,5.80
2018-07-10T08:05:22.820Z,4.95
2018-07-10T08:07:51.017Z,4.78
2018-07-10T08:10:19.209Z,5.05
2018-07-10T08:12:47.432Z,5.70
2018-07-10T08:15:15.404Z,4.85
2018-07-10T08:17:43.375Z,4.97
2018-07-10T08:20:11.312Z,5.87
2018-07-10T08:22:39.535Z,5.28
2018-07-10T08:25:07.727Z,5.08
2018-07-10T08:27:36.918Z,5.25
2018-07-10T08:30:04.896Z,4.85
2018-07-10T08:32:33.116Z,5.47
2018-07-10T08:35:01.320Z,4.95
2018-07-10T08:37:29.549Z,5.55
2018-07-10T08:39:57.758Z,5.28
2018-07-10T08:42:25.968Z,5.20
2018-07-10T08:44:54.296Z,5.42
2018-07-10T08:47:22.504Z,5.42
2018-07-10T08:49:50.721Z,6.20
2018-07-10T08:52:19.094Z,6.10
2018-07-10T08:54:47.297Z,5.08
2018-07-10T08:57:15.495Z,5.47
2018-07-10T08:59:43.833Z,5.97
2018-07-10T09:02:11.983Z,6.72
2018-07-10T09:04:40.185Z,5.90
2018-07-10T09:07:08.411Z,6.10
2018-07-10T09:09:36.590Z,5.85
2018-07-10T09:12:04.826Z,6.20
2018-07-10T09:14:33.011Z,6.62
2018-07-10T09:17:01.232Z,5.35
2018-07-10T09:19:30.724Z,5.60
2018-07-10T09:22:02.330Z,6.35
2018-07-10T09:24:30.296Z,6.92
2018-07-10T09:26:58.524Z,5.87
2018-07-10T09:29:26.748Z,6.12
2018-07-10T09:31:55.764Z,5.62
2018-07-10T09:34:23.975Z,5.35
2018-07-10T09:36:52.215Z,5.40
2018-07-10T09:39:20.956Z,5.70
2018-07-10T09:41:49.217Z,5.45
2018-07-10T09:44:17.474Z,5.40
2018-07-10T09:46:46.361Z,5.22
2018-07-10T09:49:14.571Z,5.30
2018-07-10T09:51:42.762Z,4.95
2018-07-10T09:54:11.261Z,4.97
2018-07-10T09:56:39.537Z,4.90
2018-07-10T09:59:07.806Z,3.90
2018-07-10T10:01:36.186Z,3.90
2018-07-10T10:04:04.859Z,4.30
2018-07-10T10:06:33.377Z,4.65
2018-07-10T10:09:01.695Z,4.90
2018-07-10T10:11:29.928Z,4.83
2018-07-10T10:13:58.119Z,4.90
2018-07-10T10:16:26.299Z,5.12
2018-07-10T10:21:57.580Z,5.15
2018-07-10T10:24:25.833Z,5.70
2018-07-10T10:26:54.073Z,6.28
2018-07-10T10:29:22.358Z,5.78
2018-07-10T10:31:50.574Z,5.78
2018-07-10T10:34:18.824Z,5.33
2018-07-10T10:36:47.037Z,5.25
2018-07-10T10:39:15.717Z,5.37
2018-07-10T10:41:43.922Z,4.80
2018-07-10T10:44:12.120Z,4.53
2018-07-10T10:46:40.495Z,4.35
2018-07-10T10:49:08.818Z,4.45
2018-07-10T10:51:37.097Z,4.12
2018-07-10T10:54:05.508Z,3.87
2018-07-10T10:56:33.739Z,3.87
2018-07-10T10:59:02.178Z,4.00
2018-07-10T11:01:30.438Z,4.25
2018-07-10T11:03:58.757Z,3.70
2018-07-10T11:06:28.024Z,3.77
2018-07-10T11:08:56.983Z,3.98
2018-07-10T11:11:25.158Z,3.62
2018-07-10T11:13:53.374Z,3.77
2018-07-10T11:16:21.726Z,4.08
2018-07-10T11:19:01.774Z,5.20
2018-07-10T11:21:45.084Z,4.20
2018-07-10T11:24:15.686Z,4.22
2018-07-10T11:26:44.968Z,4.67
2018-07-10T11:29:13.854Z,4.42
2018-07-10T11:31:42.021Z,3.90
2018-07-10T11:34:10.204Z,3.87
2018-07-10T11:36:38.410Z,3.72
2018-07-10T11:39:13.536Z,3.70
2018-07-10T11:41:45.550Z,4.00
2018-07-10T11:44:13.730Z,3.52
2018-07-10T11:46:41.984Z,3.30
2018-07-10T11:49:10.187Z,3.72
2018-07-10T11:51:38.360Z,3.67
2018-07-10T11:54:06.498Z,3.37
2018-07-10T11:56:34.785Z,3.60
2018-07-10T11:59:03.667Z,3.65
2018-07-10T12:01:32.842Z,3.55
2018-07-10T12:04:00.998Z,3.67
2018-07-10T12:06:29.140Z,3.95
2018-07-10T12:08:59.271Z,3.30
2018-07-10T12:11:31.103Z,3.95
2018-07-10T12:13:59.262Z,3.33
2018-07-10T12:16:27.414Z,3.30
2018-07-10T12:18:55.576Z,3.25
2018-07-10T12:21:23.499Z,3.42
2018-07-10T12:23:51.659Z,2.95
2018-07-10T12:26:19.835Z,2.98
2018-07-10T12:28:47.981Z,3.12
2018-07-10T12:31:16.125Z,2.98
2018-07-10T12:33:44.282Z,2.70
2018-07-10T12:36:12.448Z,3.40
2018-07-10T12:38:40.609Z,2.58
2018-07-10T12:41:08.829Z,3.15
2018-07-10T12:43:37.054Z,3.05
2018-07-10T12:46:05.321Z,3.45
2018-07-10T12:48:33.473Z,2.75
2018-07-10T12:51:01.623Z,2.50
2018-07-10T12:53:29.783Z,2.50
2018-07-10T12:55:59.414Z,2.65
2018-07-10T12:58:28.120Z,2.72
2018-07-10T13:00:56.319Z,2.35
2018-07-10T13:03:24.497Z,2.15
2018-07-10T13:05:55.119Z,2.80
2018-07-10T13:08:24.132Z,2.17
2018-07-10T13:10:52.287Z,2.47
2018-07-10T13:13:20.602Z,2.50
2018-07-10T13:15:48.771Z,2.50
2018-07-10T13:18:19.023Z,2.15
2018-07-10T13:20:47.175Z,2.08
2018-07-10T13:23:15.350Z,2.62
2018-07-10T13:25:43.274Z,2.30
2018-07-10T13:28:11.443Z,2.90
2018-07-10T13:30:39.634Z,2.10
2018-07-10T13:33:07.806Z,2.25
2018-07-10T13:35:36.233Z,2.50
2018-07-10T13:38:04.699Z,2.40
2018-07-10T13:40:34.498Z,2.37
2018-07-10T13:43:02.663Z,2.20
2018-07-10T13:45:31.613Z,2.50
2018-07-10T13:47:59.769Z,2.47
2018-07-10T13:50:30.056Z,2.25
2018-07-10T13:52:59.383Z,2.47
2018-07-10T13:55:28.034Z,2.75
2018-07-10T13:58:06.084Z,1.82
2018-07-10T14:00:37.122Z,2.33
2018-07-10T14:03:05.376Z,1.57
2018-07-10T14:05:33.538Z,2.17
2018-07-10T14:08:01.728Z,2.30
2018-07-10T14:10:29.899Z,2.15
2018-07-10T14:12:58.239Z,2.10
2018-07-10T14:15:26.418Z,1.70
2018-07-10T14:17:54.650Z,1.67
2018-07-10T14:20:23.142Z,1.90
2018-07-10T14:22:51.311Z,2.10
2018-07-10T14:25:19.503Z,1.90
2018-07-10T14:27:47.718Z,1.57
2018-07-10T14:30:15.923Z,1.90
2018-07-10T14:32:44.102Z,2.27
2018-07-10T14:35:12.305Z,1.90
2018-07-10T14:37:40.537Z,1.62
2018-07-10T14:40:08.725Z,1.80
2018-07-10T14:42:37.570Z,1.85
2018-07-10T14:45:06.348Z,1.60
2018-07-10T14:47:35.737Z,1.50
2018-07-10T14:50:04.413Z,1.67
2018-07-10T14:52:32.604Z,1.75
2018-07-10T14:55:00.791Z,1.37
2018-07-10T14:57:28.940Z,1.67
2018-07-10T14:59:57.150Z,1.90
2018-07-10T15:02:25.330Z,1.50
2018-07-10T15:04:53.521Z,1.32
2018-07-10T15:07:21.982Z,1.50
2018-07-10T15:09:50.208Z,1.40
2018-07-10T15:12:18.397Z,1.62
2018-07-10T15:14:46.901Z,1.85
2018-07-10T15:17:20.192Z,1.42
2018-07-10T15:19:48.436Z,1.75
2018-07-10T15:22:16.609Z,1.50
2018-07-10T15:24:44.821Z,1.37
2018-07-10T15:27:12.978Z,1.82
2018-07-10T15:29:41.157Z,1.40
2018-07-10T15:32:09.320Z,1.67
2018-07-10T15:34:37.462Z,1.60
2018-07-10T15:37:05.664Z,1.67
2018-07-10T15:39:33.833Z,1.50
2018-07-10T15:42:02.034Z,1.57
2018-07-10T15:44:36.743Z,1.30
2018-07-10T15:47:05.006Z,1.80
2018-07-10T15:49:33.186Z,1.70
2018-07-10T15:52:01.366Z,1.22
2018-07-10T15:54:29.518Z,1.45
2018-07-10T15:56:57.670Z,1.30
2018-07-10T15:59:25.937Z,1.25
2018-07-10T16:01:53.844Z,1.42
2018-07-10T16:04:22.024Z,1.65
2018-07-10T16:06:49.943Z,1.40
2018-07-10T16:09:19.911Z,1.47
2018-07-10T16:11:50.636Z,1.40
2018-07-10T16:14:18.793Z,1.27
2018-07-10T16:16:47.066Z,1.30
2018-07-10T16:19:17.158Z,1.35
2018-07-10T16:21:57.746Z,1.98
2018-07-10T16:24:26.003Z,1.72
2018-07-10T16:26:54.475Z,1.70
2018-07-10T16:29:23.437Z,1.57
2018-07-10T16:31:53.778Z,1.57
2018-07-10T16:34:21.958Z,1.47
2018-07-10T16:36:50.149Z,1.67
2018-07-10T16:39:18.340Z,1.27
2018-07-10T16:41:51.798Z,1.22
2018-07-10T16:44:19.996Z,1.70
2018-07-10T16:46:48.462Z,1.45
2018-07-10T16:49:20.424Z,1.27
2018-07-10T16:51:55.307Z,1.70
2018-07-10T16:54:23.508Z,1.10
2018-07-10T16:56:51.688Z,1.40
2018-07-10T16:59:19.856Z,1.65
2018-07-10T17:01:48.017Z,1.15
2018-07-10T17:04:16.178Z,1.50
2018-07-10T17:06:44.640Z,1.32
2018-07-10T17:09:12.811Z,1.47
2018-07-10T17:11:40.980Z,1.10
2018-07-10T17:14:09.123Z,1.32
2018-07-10T17:16:37.301Z,1.47
2018-07-10T17:19:05.567Z,1.20
2018-07-10T17:21:33.721Z,1.17
2018-07-10T17:24:03.324Z,1.50
2018-07-10T17:26:31.946Z,1.20
2018-07-10T17:29:03.556Z,1.35
2018-07-10T17:31:31.765Z,1.57
2018-07-10T17:33:59.908Z,1.10
2018-07-10T17:36:28.067Z,1.25
2018-07-10T17:38:55.983Z,1.20
2018-07-10T17:41:24.458Z,1.20
2018-07-10T17:43:52.621Z,1.27
2018-07-10T17:46:20.780Z,1.12
2018-07-10T17:48:48.951Z,1.12
2018-07-10T17:51:17.116Z,1.40
2018-07-10T17:53:45.297Z,1.25
2018-07-10T17:56:13.548Z,1.12
2018-07-10T17:58:41.695Z,1.40
2018-07-10T18:01:09.895Z,1.22
2018-07-10T18:03:38.025Z,1.40
2018-07-10T18:06:06.211Z,1.50
2018-07-10T18:08:34.368Z,1.30
2018-07-10T18:11:02.584Z,1.40
2018-07-10T18:13:30.764Z,1.40
2018-07-10T18:15:58.946Z,1.40
2018-07-10T18:18:27.529Z,1.15
2018-07-10T18:20:56.710Z,0.90
2018-07-10T18:23:24.890Z,1.35
2018-07-10T18:25:53.033Z,1.40
2018-07-10T18:28:20.945Z,1.05
2018-07-10T18:30:49.137Z,1.10
2018-07-10T18:33:17.297Z,1.20
2018-07-10T18:35:45.465Z,1.40
2018-07-10T18:38:13.615Z,1.17
2018-07-10T18:40:41.776Z,1.37
2018-07-10T18:43:09.958Z,1.00
2018-07-10T18:45:38.154Z,1.30
2018-07-10T18:48:06.328Z,1.22
2018-07-10T18:50:34.551Z,1.17
2018-07-10T18:53:02.768Z,1.07
2018-07-10T18:55:30.952Z,1.12
2018-07-10T18:58:10.282Z,1.47
2018-07-10T19:02:49.387Z,1.50
2018-07-10T19:05:17.599Z,1.70
2018-07-10T19:07:45.774Z,1.57
2018-07-10T19:10:13.983Z,1.42
2018-07-10T19:12:42.927Z,1.77
2018-07-10T19:15:10.850Z,1.37
2018-07-10T19:17:39.056Z,1.80
2018-07-10T19:20:09.743Z,1.85
2018-07-10T19:22:53.305Z,1.30
2018-07-10T19:25:21.479Z,1.45
2018-07-10T19:27:51.962Z,1.30
2018-07-10T19:30:21.473Z,1.50
2018-07-10T19:32:49.603Z,1.60
2018-07-10T19:35:17.783Z,1.10
2018-07-10T19:37:45.964Z,1.00
2018-07-10T19:40:14.135Z,1.17
2018-07-10T19:42:42.316Z,1.32
2018-07-10T19:45:10.488Z,1.10
2018-07-10T19:47:38.666Z,1.12
2018-07-10T19:50:12.452Z,1.00
2018-07-10T19:52:42.794Z,1.50
2018-07-10T19:55:11.620Z,1.10
2018-07-10T19:57:46.121Z,1.42
2018-07-10T20:00:14.385Z,1.40
2018-07-10T20:02:43.090Z,1.45
2018-07-10T20:05:14.492Z,1.00
2018-07-10T20:07:49.754Z,1.22
2018-07-10T20:10:26.013Z,1.40
2018-07-10T20:12:58.178Z,1.17
2018-07-10T20:15:30.876Z,1.60
2018-07-10T20:18:10.772Z,1.30
2018-07-10T20:20:41.847Z,1.65
2018-07-10T20:24:16.022Z,1.30
2018-07-10T20:26:52.348Z,1.42
2018-07-10T20:29:31.893Z,1.62
2018-07-10T20:32:01.669Z,1.20
2018-07-10T20:34:56.782Z,1.40
2018-07-10T20:37:28.430Z,1.37
2018-07-10T20:39:56.614Z,1.35
2018-07-10T20:42:27.335Z,1.57
2018-07-10T20:44:59.665Z,1.37
2018-07-10T20:47:33.327Z,1.40
2018-07-10T20:50:04.721Z,1.70
2018-07-10T20:54:49.483Z,2.00
2018-07-10T20:58:06.624Z,1.90
2018-07-10T21:00:38.511Z,2.27
2018-07-10T21:04:18.319Z,2.05
2018-07-10T21:06:53.616Z,1.87
2018-07-10T21:09:22.334Z,1.92
2018-07-10T21:12:00.144Z,1.77
2018-07-10T21:14:37.504Z,1.72
2018-07-10T21:17:10.509Z,1.98
2018-07-10T21:19:49.773Z,1.50
2018-07-10T21:22:26.446Z,1.70
2018-07-10T21:25:06.127Z,1.70
2018-07-10T21:28:45.226Z,1.50
2018-07-10T21:31:22.076Z,1.70
2018-07-10T21:34:00.844Z,1.75
2018-07-10T21:36:39.595Z,1.65
2018-07-10T21:39:14.921Z,1.40
2018-07-10T21:41:55.364Z,1.90
2018-07-10T21:44:29.726Z,1.90
2018-07-10T21:47:06.968Z,1.60
2018-07-10T21:49:47.956Z,1.77
2018-07-10T21:52:15.916Z,1.60
2018-07-10T21:54:44.184Z,1.82
2018-07-10T21:57:14.356Z,2.15
2018-07-10T21:59:50.568Z,1.92
2018-07-10T22:02:18.819Z,1.87
2018-07-10T22:04:47.062Z,1.70
2018-07-10T22:07:16.077Z,1.65
2018-07-10T22:09:44.758Z,2.10
2018-07-10T22:12:15.588Z,2.10
2018-07-10T22:14:43.601Z,1.75
2018-07-10T22:17:16.570Z,2.02
2018-07-10T22:19:45.433Z,1.77
2018-07-10T22:22:17.117Z,1.90
2018-07-10T22:24:45.307Z,2.50
2018-07-10T22:27:13.524Z,2.15
2018-07-10T22:29:47.282Z,2.72
2018-07-10T22:32:20.971Z,2.12
2018-07-10T22:34:49.160Z,2.20
2018-07-10T22:37:17.408Z,2.52
2018-07-10T22:39:45.638Z,2.92
2018-07-10T22:42:13.854Z,2.60
2018-07-10T22:44:45.262Z,2.62
2018-07-10T22:47:13.466Z,3.00
2018-07-10T22:49:41.674Z,2.77
2018-07-10T22:52:09.944Z,2.83
2018-07-10T22:54:38.212Z,2.65
2018-07-10T22:57:09.508Z,2.70
2018-07-10T22:59:37.744Z,2.62
2018-07-10T23:02:06.534Z,2.70
2018-07-10T23:04:34.760Z,2.80
2018-07-10T23:07:02.967Z,2.67
2018-07-10T23:12:04.377Z,2.70
2018-07-10T23:14:33.199Z,2.80
2018-07-10T23:17:01.465Z,2.58
2018-07-10T23:19:29.660Z,2.92
2018-07-10T23:21:57.859Z,2.33
2018-07-10T23:24:26.031Z,2.58
2018-07-10T23:26:54.215Z,2.70
2018-07-10T23:29:31.877Z,2.45
2018-07-10T23:32:00.974Z,2.52
2018-07-10T23:34:29.175Z,2.40
2018-07-10T23:36:58.428Z,2.83
2018-07-10T23:39:35.769Z,2.47
2018-07-10T23:42:06.702Z,2.42
2018-07-10T23:44:37.941Z,2.90
2018-07-10T23:47:10.030Z,2.70
2018-07-10T23:49:38.220Z,2.70
2018-07-10T23:54:29.429Z,2.52
2018-07-10T23:56:57.678Z,2.77
2018-07-10T23:59:25.868Z,2.98
